Merced, California
Current Conditions -  °F | °C
As of 12:53 PM on Tuesday 21 Oct 2014 (Local Time) from KMCE Reporting Station
Clear Clear  
Wind Chill: 21°   Ceiling: Unl
Heat Index: 21°   Visibility: 10mi
Dew Point:   Wind: 16mph
Humidity: 39%   Direction: 320°NW
Pressure: 30.03"   Gusts: NA
Location:  37.3°N, 120.48°W
Report Text: KMCE 211953Z AUTO 32014KT 10SM CLR 21/07 A3003 RMK AO2 SLP168 T02110067
Loading
Personal Weather Stations






























Interactive Weather Map
Tropical Storm Tracking
New forecast layout! Learn more

10-Day Weather Forecast

Advertisements
Track Severe Weather on mobile